sensor_id;sensor_type;location;lat;lon;timestamp;pressure;altitude;pressure_sealevel;temperature;humidity
64616;BME280;51027;42.162;24.754;2024-03-23T04:33:00;99927.66;;;3.80;100.00
64616;BME280;51027;42.162;24.754;2024-03-23T04:35:26;99910.44;;;3.57;100.00
64616;BME280;51027;42.162;24.754;2024-03-23T04:37:53;99933.81;;;3.68;100.00
64616;BME280;51027;42.162;24.754;2024-03-23T04:40:18;99933.03;;;3.55;100.00
64616;BME280;51027;42.162;24.754;2024-03-23T04:42:44;99928.59;;;3.71;99.93
64616;BME280;51027;42.162;24.754;2024-03-23T04:45:09;99937.31;;;3.62;99.94
64616;BME280;51027;42.162;24.754;2024-03-23T04:47:36;99937.09;;;3.91;98.32
64616;BME280;51027;42.162;24.754;2024-03-23T04:50:03;99937.09;;;3.93;97.49
64616;BME280;51027;42.162;24.754;2024-03-23T04:52:29;99924.97;;;3.89;97.37
64616;BME280;51027;42.162;24.754;2024-03-23T04:54:55;99908.47;;;3.90;97.05
64616;BME280;51027;42.162;24.754;2024-03-23T04:57:20;99915.31;;;4.01;96.72
64616;BME280;51027;42.162;24.754;2024-03-23T04:59:46;99937.81;;;4.12;96.56
64616;BME280;51027;42.162;24.754;2024-03-23T05:02:12;99921.09;;;4.31;95.20
64616;BME280;51027;42.162;24.754;2024-03-23T05:04:38;99923.63;;;4.37;94.62
64616;BME280;51027;42.162;24.754;2024-03-23T05:07:03;99928.72;;;4.48;94.10
64616;BME280;51027;42.162;24.754;2024-03-23T05:09:29;99927.84;;;4.52;93.28
64616;BME280;51027;42.162;24.754;2024-03-23T05:11:56;99912.06;;;4.62;92.25
64616;BME280;51027;42.162;24.754;2024-03-23T05:14:22;99936.16;;;4.84;91.83
64616;BME280;51027;42.162;24.754;2024-03-23T05:16:47;99917.53;;;5.12;89.51
64616;BME280;51027;42.162;24.754;2024-03-23T05:19:13;99932.06;;;5.30;88.58
64616;BME280;51027;42.162;24.754;2024-03-23T05:21:38;99926.38;;;5.00;89.47
64616;BME280;51027;42.162;24.754;2024-03-23T05:24:04;99921.88;;;5.13;89.31
64616;BME280;51027;42.162;24.754;2024-03-23T05:26:29;99920.66;;;5.37;88.34
64616;BME280;51027;42.162;24.754;2024-03-23T05:28:56;99928.47;;;5.38;87.54
64616;BME280;51027;42.162;24.754;2024-03-23T05:31:28;99898.25;;;5.22;87.10
64616;BME280;51027;42.162;24.754;2024-03-23T05:33:54;99920.13;;;5.70;85.70
64616;BME280;51027;42.162;24.754;2024-03-23T05:36:20;99935.66;;;5.83;84.76
64616;BME280;51027;42.162;24.754;2024-03-23T05:38:45;99932.66;;;6.07;83.63
64616;BME280;51027;42.162;24.754;2024-03-23T05:41:11;99926.94;;;6.33;82.28
64616;BME280;51027;42.162;24.754;2024-03-23T05:43:36;99921.03;;;6.23;81.82
64616;BME280;51027;42.162;24.754;2024-03-23T05:46:02;99944.19;;;6.89;84.90
64616;BME280;51027;42.162;24.754;2024-03-23T05:48:28;99942.78;;;6.72;84.54
64616;BME280;51027;42.162;24.754;2024-03-23T05:50:54;99930.91;;;6.99;82.92
64616;BME280;51027;42.162;24.754;2024-03-23T05:53:20;99936.13;;;7.00;81.66
64616;BME280;51027;42.162;24.754;2024-03-23T05:55:49;99873.34;;;6.54;82.14
64616;BME280;51027;42.162;24.754;2024-03-23T05:58:15;99920.47;;;6.97;79.97
64616;BME280;51027;42.162;24.754;2024-03-23T06:00:41;99941.47;;;7.34;79.02
64616;BME280;51027;42.162;24.754;2024-03-23T06:03:07;99942.53;;;7.27;78.70
64616;BME280;51027;42.162;24.754;2024-03-23T06:05:33;99931.28;;;7.22;78.44
64616;BME280;51027;42.162;24.754;2024-03-23T06:07:58;99922.78;;;7.51;77.47
64616;BME280;51027;42.162;24.754;2024-03-23T06:10:24;99933.56;;;7.74;76.58
64616;BME280;51027;42.162;24.754;2024-03-23T06:12:49;99936.28;;;7.71;76.40
64616;BME280;51027;42.162;24.754;2024-03-23T06:15:20;99929.53;;;7.61;76.27
64616;BME280;51027;42.162;24.754;2024-03-23T06:17:45;99937.84;;;7.78;75.47
64616;BME280;51027;42.162;24.754;2024-03-23T06:20:12;99923.88;;;8.14;74.75
64616;BME280;51027;42.162;24.754;2024-03-23T06:22:38;99934.25;;;8.18;74.82
64616;BME280;51027;42.162;24.754;2024-03-23T06:25:03;99909.38;;;8.33;73.37
64616;BME280;51027;42.162;24.754;2024-03-23T06:27:29;99925.00;;;8.37;72.96
64616;BME280;51027;42.162;24.754;2024-03-23T06:29:55;99931.31;;;8.30;73.26
64616;BME280;51027;42.162;24.754;2024-03-23T06:32:20;99925.66;;;8.12;73.27
64616;BME280;51027;42.162;24.754;2024-03-23T06:34:52;99941.28;;;8.18;74.30
64616;BME280;51027;42.162;24.754;2024-03-23T06:37:17;99916.91;;;8.47;73.05
64616;BME280;51027;42.162;24.754;2024-03-23T06:39:45;99926.09;;;8.29;73.76
64616;BME280;51027;42.162;24.754;2024-03-23T06:42:11;99908.53;;;8.65;72.35
64616;BME280;51027;42.162;24.754;2024-03-23T06:44:36;99918.81;;;8.73;72.21
64616;BME280;51027;42.162;24.754;2024-03-23T06:47:01;99916.22;;;9.02;71.42
64616;BME280;51027;42.162;24.754;2024-03-23T06:49:28;99929.78;;;9.16;70.96
64616;BME280;51027;42.162;24.754;2024-03-23T06:51:53;99926.22;;;9.19;70.40
64616;BME280;51027;42.162;24.754;2024-03-23T06:54:19;99926.91;;;9.26;70.77
64616;BME280;51027;42.162;24.754;2024-03-23T06:56:45;99920.41;;;9.37;69.51
64616;BME280;51027;42.162;24.754;2024-03-23T06:59:11;99931.03;;;9.62;68.78
64616;BME280;51027;42.162;24.754;2024-03-23T07:01:37;99930.13;;;9.63;68.35
64616;BME280;51027;42.162;24.754;2024-03-23T07:04:02;99931.25;;;9.82;67.89
64616;BME280;51027;42.162;24.754;2024-03-23T07:06:32;99913.34;;;9.94;67.63
64616;BME280;51027;42.162;24.754;2024-03-23T07:08:57;99919.41;;;10.24;66.57
64616;BME280;51027;42.162;24.754;2024-03-23T07:11:23;99929.63;;;10.81;64.34
64616;BME280;51027;42.162;24.754;2024-03-23T07:13:53;99912.56;;;10.68;64.64
64616;BME280;51027;42.162;24.754;2024-03-23T07:16:22;99922.19;;;10.69;64.39
64616;BME280;51027;42.162;24.754;2024-03-23T07:18:47;99886.81;;;10.76;63.90
64616;BME280;51027;42.162;24.754;2024-03-23T07:21:12;99899.72;;;10.82;62.89
64616;BME280;51027;42.162;24.754;2024-03-23T07:23:42;99889.19;;;10.82;61.64
64616;BME280;51027;42.162;24.754;2024-03-23T07:26:07;99896.25;;;11.05;60.88
64616;BME280;51027;42.162;24.754;2024-03-23T07:28:33;99858.00;;;10.95;60.81
64616;BME280;51027;42.162;24.754;2024-03-23T07:31:13;99858.31;;;11.09;60.43
64616;BME280;51027;42.162;24.754;2024-03-23T07:33:46;99896.22;;;11.72;59.36
64616;BME280;51027;42.162;24.754;2024-03-23T07:36:12;99903.88;;;11.80;57.96
64616;BME280;51027;42.162;24.754;2024-03-23T07:38:40;99898.78;;;11.97;58.22
64616;BME280;51027;42.162;24.754;2024-03-23T07:41:10;99880.34;;;11.52;58.33
64616;BME280;51027;42.162;24.754;2024-03-23T07:43:39;99842.94;;;11.42;58.51
64616;BME280;51027;42.162;24.754;2024-03-23T07:46:08;99876.63;;;11.79;58.31
64616;BME280;51027;42.162;24.754;2024-03-23T07:48:34;99888.69;;;11.85;58.63
64616;BME280;51027;42.162;24.754;2024-03-23T07:51:03;99894.28;;;11.77;58.65
64616;BME280;51027;42.162;24.754;2024-03-23T07:53:30;99867.41;;;11.68;58.62
64616;BME280;51027;42.162;24.754;2024-03-23T07:55:58;99882.94;;;12.58;57.30
64616;BME280;51027;42.162;24.754;2024-03-23T07:58:24;99865.25;;;12.40;58.53
64616;BME280;51027;42.162;24.754;2024-03-23T08:00:50;99874.81;;;12.43;58.60
64616;BME280;51027;42.162;24.754;2024-03-23T08:03:15;99869.66;;;12.60;58.84
64616;BME280;51027;42.162;24.754;2024-03-23T08:05:41;99867.88;;;12.60;59.04
64616;BME280;51027;42.162;24.754;2024-03-23T08:08:06;99866.19;;;13.16;56.50
64616;BME280;51027;42.162;24.754;2024-03-23T08:10:32;99874.72;;;13.41;56.04
64616;BME280;51027;42.162;24.754;2024-03-23T08:12:57;99865.16;;;13.92;54.53
64616;BME280;51027;42.162;24.754;2024-03-23T08:15:22;99864.34;;;13.73;53.12
64616;BME280;51027;42.162;24.754;2024-03-23T08:17:49;99856.28;;;13.93;53.09
64616;BME280;51027;42.162;24.754;2024-03-23T08:20:18;99868.13;;;14.03;53.24
64616;BME280;51027;42.162;24.754;2024-03-23T08:22:48;99859.94;;;14.25;52.24
64616;BME280;51027;42.162;24.754;2024-03-23T08:25:15;99864.38;;;14.42;51.54
64616;BME280;51027;42.162;24.754;2024-03-23T08:27:44;99848.97;;;14.66;50.62
64616;BME280;51027;42.162;24.754;2024-03-23T08:30:10;99829.00;;;14.76;50.49
64616;BME280;51027;42.162;24.754;2024-03-23T08:32:36;99836.22;;;14.39;51.12
64616;BME280;51027;42.162;24.754;2024-03-23T08:35:01;99835.06;;;14.62;49.75
64616;BME280;51027;42.162;24.754;2024-03-23T08:37:27;99814.28;;;14.86;49.54
64616;BME280;51027;42.162;24.754;2024-03-23T08:39:52;99813.97;;;14.92;48.59
64616;BME280;51027;42.162;24.754;2024-03-23T08:42:18;99818.16;;;15.12;48.18
64616;BME280;51027;42.162;24.754;2024-03-23T08:44:43;99827.09;;;15.73;47.55
64616;BME280;51027;42.162;24.754;2024-03-23T08:47:11;99823.03;;;15.97;45.86
64616;BME280;51027;42.162;24.754;2024-03-23T08:49:39;99823.69;;;15.71;45.76
64616;BME280;51027;42.162;24.754;2024-03-23T08:52:05;99804.03;;;15.27;46.64
64616;BME280;51027;42.162;24.754;2024-03-23T08:54:34;99818.50;;;15.83;45.95
64616;BME280;51027;42.162;24.754;2024-03-23T08:57:00;99799.53;;;16.20;44.71
64616;BME280;51027;42.162;24.754;2024-03-23T08:59:25;99808.34;;;16.34;44.23
64616;BME280;51027;42.162;24.754;2024-03-23T09:01:51;99795.66;;;16.39;44.42
64616;BME280;51027;42.162;24.754;2024-03-23T09:04:16;99774.09;;;16.16;44.79
64616;BME280;51027;42.162;24.754;2024-03-23T09:06:42;99785.88;;;16.26;44.75
64616;BME280;51027;42.162;24.754;2024-03-23T09:09:08;99786.63;;;16.56;44.36
64616;BME280;51027;42.162;24.754;2024-03-23T09:11:33;99791.28;;;16.53;43.51
64616;BME280;51027;42.162;24.754;2024-03-23T09:13:59;99783.22;;;16.26;44.20
64616;BME280;51027;42.162;24.754;2024-03-23T09:16:24;99776.19;;;16.82;43.67
64616;BME280;51027;42.162;24.754;2024-03-23T09:18:50;99775.72;;;17.16;42.32
64616;BME280;51027;42.162;24.754;2024-03-23T09:21:15;99771.03;;;16.64;44.04
64616;BME280;51027;42.162;24.754;2024-03-23T09:23:44;99761.75;;;16.72;44.52
64616;BME280;51027;42.162;24.754;2024-03-23T09:26:09;99761.97;;;17.10;44.99
64616;BME280;51027;42.162;24.754;2024-03-23T09:28:35;99764.53;;;17.38;45.68
64616;BME280;51027;42.162;24.754;2024-03-23T09:31:04;99759.97;;;17.40;44.21
64616;BME280;51027;42.162;24.754;2024-03-23T09:33:29;99748.03;;;16.92;44.85
64616;BME280;51027;42.162;24.754;2024-03-23T09:35:55;99742.56;;;17.35;43.92
64616;BME280;51027;42.162;24.754;2024-03-23T09:38:22;99739.25;;;17.04;43.79
64616;BME280;51027;42.162;24.754;2024-03-23T09:40:52;99742.84;;;17.17;44.09
64616;BME280;51027;42.162;24.754;2024-03-23T09:43:18;99742.69;;;17.33;43.51
64616;BME280;51027;42.162;24.754;2024-03-23T09:45:44;99731.72;;;17.77;42.75
64616;BME280;51027;42.162;24.754;2024-03-23T09:48:10;99745.31;;;17.60;42.67
64616;BME280;51027;42.162;24.754;2024-03-23T09:50:39;99724.63;;;17.51;42.11
64616;BME280;51027;42.162;24.754;2024-03-23T09:53:09;99733.06;;;17.58;41.57
64616;BME280;51027;42.162;24.754;2024-03-23T09:55:35;99729.69;;;17.68;41.54
64616;BME280;51027;42.162;24.754;2024-03-23T09:58:02;99711.91;;;17.02;41.89
64616;BME280;51027;42.162;24.754;2024-03-23T10:00:27;99725.25;;;17.54;41.56
64616;BME280;51027;42.162;24.754;2024-03-23T10:02:55;99716.00;;;18.00;41.10
64616;BME280;51027;42.162;24.754;2024-03-23T10:05:23;99718.22;;;17.93;39.61
64616;BME280;51027;42.162;24.754;2024-03-23T10:07:52;99700.50;;;18.18;40.61
64616;BME280;51027;42.162;24.754;2024-03-23T10:10:18;99692.97;;;17.99;41.72
64616;BME280;51027;42.162;24.754;2024-03-23T10:12:47;99694.84;;;17.97;42.03
64616;BME280;51027;42.162;24.754;2024-03-23T10:15:21;99692.47;;;18.43;41.79
64616;BME280;51027;42.162;24.754;2024-03-23T10:17:47;99675.91;;;18.01;41.94
64616;BME280;51027;42.162;24.754;2024-03-23T10:20:13;99684.13;;;18.48;41.10
64616;BME280;51027;42.162;24.754;2024-03-23T10:22:39;99656.53;;;18.36;41.41
64616;BME280;51027;42.162;24.754;2024-03-23T10:25:08;99666.47;;;18.83;40.89
64616;BME280;51027;42.162;24.754;2024-03-23T10:27:34;99664.69;;;18.71;41.02
64616;BME280;51027;42.162;24.754;2024-03-23T10:30:10;99661.34;;;18.80;41.09
64616;BME280;51027;42.162;24.754;2024-03-23T10:32:37;99651.63;;;18.79;40.91
64616;BME280;51027;42.162;24.754;2024-03-23T10:35:16;99646.03;;;18.71;40.74
64616;BME280;51027;42.162;24.754;2024-03-23T10:37:44;99653.63;;;18.88;39.71
64616;BME280;51027;42.162;24.754;2024-03-23T10:40:11;99630.44;;;18.65;40.38
64616;BME280;51027;42.162;24.754;2024-03-23T10:42:38;99642.44;;;18.83;40.02
64616;BME280;51027;42.162;24.754;2024-03-23T10:45:04;99642.25;;;18.37;39.68
64616;BME280;51027;42.162;24.754;2024-03-23T10:47:31;99626.31;;;19.20;38.97
64616;BME280;51027;42.162;24.754;2024-03-23T10:49:57;99632.44;;;19.33;37.75
64616;BME280;51027;42.162;24.754;2024-03-23T10:52:23;99622.88;;;19.42;37.00
64616;BME280;51027;42.162;24.754;2024-03-23T10:54:51;99624.28;;;19.59;37.10
64616;BME280;51027;42.162;24.754;2024-03-23T10:57:18;99619.78;;;19.59;36.65
64616;BME280;51027;42.162;24.754;2024-03-23T10:59:46;99594.44;;;19.41;36.63
64616;BME280;51027;42.162;24.754;2024-03-23T11:02:21;99609.44;;;19.19;36.25
64616;BME280;51027;42.162;24.754;2024-03-23T11:04:47;99604.47;;;19.61;36.55
64616;BME280;51027;42.162;24.754;2024-03-23T11:07:28;99600.53;;;19.43;35.97
64616;BME280;51027;42.162;24.754;2024-03-23T11:09:54;99576.75;;;19.51;36.25
64616;BME280;51027;42.162;24.754;2024-03-23T11:14:45;99579.97;;;19.78;35.96
64616;BME280;51027;42.162;24.754;2024-03-23T11:17:11;99575.28;;;19.47;36.15
64616;BME280;51027;42.162;24.754;2024-03-23T11:19:37;99572.50;;;19.48;36.44
64616;BME280;51027;42.162;24.754;2024-03-23T11:22:03;99556.75;;;19.56;36.39
64616;BME280;51027;42.162;24.754;2024-03-23T11:24:30;99557.38;;;19.94;35.23
64616;BME280;51027;42.162;24.754;2024-03-23T11:26:56;99542.81;;;19.64;35.47
64616;BME280;51027;42.162;24.754;2024-03-23T11:29:21;99548.84;;;19.89;35.70
64616;BME280;51027;42.162;24.754;2024-03-23T11:31:47;99543.88;;;19.84;35.75
64616;BME280;51027;42.162;24.754;2024-03-23T11:34:13;99534.78;;;19.87;35.78
64616;BME280;51027;42.162;24.754;2024-03-23T11:36:40;99522.03;;;19.68;36.26
64616;BME280;51027;42.162;24.754;2024-03-23T11:41:56;99517.63;;;19.78;35.96
64616;BME280;51027;42.162;24.754;2024-03-23T11:44:23;99508.97;;;20.08;35.62
64616;BME280;51027;42.162;24.754;2024-03-23T11:46:50;99511.03;;;20.16;35.06
64616;BME280;51027;42.162;24.754;2024-03-23T11:49:26;99509.88;;;20.29;34.82
64616;BME280;51027;42.162;24.754;2024-03-23T11:51:52;99499.34;;;20.17;34.89
64616;BME280;51027;42.162;24.754;2024-03-23T11:54:23;99491.56;;;20.25;34.89
64616;BME280;51027;42.162;24.754;2024-03-23T11:56:59;99476.50;;;20.24;34.87
64616;BME280;51027;42.162;24.754;2024-03-23T11:59:39;99494.31;;;20.34;35.07
64616;BME280;51027;42.162;24.754;2024-03-23T12:02:12;99479.88;;;20.26;35.04
64616;BME280;51027;42.162;24.754;2024-03-23T12:04:40;99462.66;;;20.39;34.51
64616;BME280;51027;42.162;24.754;2024-03-23T12:07:16;99478.38;;;20.33;33.93
64616;BME280;51027;42.162;24.754;2024-03-23T12:09:46;99477.25;;;20.79;33.66
64616;BME280;51027;42.162;24.754;2024-03-23T12:12:18;99458.56;;;20.88;32.97
64616;BME280;51027;42.162;24.754;2024-03-23T12:14:44;99466.72;;;20.34;33.23
64616;BME280;51027;42.162;24.754;2024-03-23T12:17:14;99463.91;;;20.67;32.27
64616;BME280;51027;42.162;24.754;2024-03-23T12:19:41;99454.06;;;20.68;32.21
64616;BME280;51027;42.162;24.754;2024-03-23T12:22:09;99430.09;;;20.87;31.77
64616;BME280;51027;42.162;24.754;2024-03-23T12:24:35;99433.34;;;20.17;32.44
64616;BME280;51027;42.162;24.754;2024-03-23T12:27:04;99434.69;;;20.11;32.55
64616;BME280;51027;42.162;24.754;2024-03-23T12:29:30;99437.69;;;21.13;32.39
64616;BME280;51027;42.162;24.754;2024-03-23T12:31:59;99424.09;;;20.74;31.69
64616;BME280;51027;42.162;24.754;2024-03-23T12:34:25;99423.03;;;21.07;31.65
64616;BME280;51027;42.162;24.754;2024-03-23T12:36:50;99390.34;;;21.13;31.60
64616;BME280;51027;42.162;24.754;2024-03-23T12:39:16;99406.97;;;21.07;30.67
64616;BME280;51027;42.162;24.754;2024-03-23T12:41:41;99414.94;;;21.59;30.80
64616;BME280;51027;42.162;24.754;2024-03-23T12:44:06;99410.53;;;21.17;30.46
64616;BME280;51027;42.162;24.754;2024-03-23T12:46:33;99413.66;;;21.63;29.67
64616;BME280;51027;42.162;24.754;2024-03-23T12:48:59;99385.00;;;21.23;28.91
64616;BME280;51027;42.162;24.754;2024-03-23T12:51:24;99394.44;;;22.07;29.27
64616;BME280;51027;42.162;24.754;2024-03-23T12:53:50;99388.06;;;22.37;28.71
64616;BME280;51027;42.162;24.754;2024-03-23T12:56:16;99360.69;;;22.34;27.98
64616;BME280;51027;42.162;24.754;2024-03-23T12:58:41;99383.44;;;22.30;28.10
64616;BME280;51027;42.162;24.754;2024-03-23T13:01:07;99357.84;;;22.35;28.78
64616;BME280;51027;42.162;24.754;2024-03-23T13:03:32;99361.34;;;22.55;28.22
64616;BME280;51027;42.162;24.754;2024-03-23T13:05:57;99352.69;;;21.45;28.69
64616;BME280;51027;42.162;24.754;2024-03-23T13:08:23;99380.69;;;21.81;28.96
64616;BME280;51027;42.162;24.754;2024-03-23T13:10:52;99366.47;;;22.39;27.48
64616;BME280;51027;42.162;24.754;2024-03-23T13:13:17;99351.63;;;22.35;27.75
64616;BME280;51027;42.162;24.754;2024-03-23T13:15:48;99356.81;;;22.65;27.09
64616;BME280;51027;42.162;24.754;2024-03-23T13:18:14;99344.72;;;22.32;27.26
64616;BME280;51027;42.162;24.754;2024-03-23T13:20:40;99351.91;;;21.83;27.61
64616;BME280;51027;42.162;24.754;2024-03-23T13:23:05;99345.84;;;21.81;27.72
64616;BME280;51027;42.162;24.754;2024-03-23T13:25:31;99354.75;;;22.30;27.57
64616;BME280;51027;42.162;24.754;2024-03-23T13:27:56;99344.44;;;21.77;27.39
64616;BME280;51027;42.162;24.754;2024-03-23T13:30:21;99343.28;;;21.70;28.32
64616;BME280;51027;42.162;24.754;2024-03-23T13:32:47;99340.34;;;22.31;27.34
64616;BME280;51027;42.162;24.754;2024-03-23T13:35:12;99338.38;;;21.25;27.16
64616;BME280;51027;42.162;24.754;2024-03-23T13:37:37;99283.03;;;20.95;27.70
64616;BME280;51027;42.162;24.754;2024-03-23T13:40:03;99332.97;;;21.06;26.80
64616;BME280;51027;42.162;24.754;2024-03-23T13:42:29;99323.09;;;21.56;27.51
64616;BME280;51027;42.162;24.754;2024-03-23T13:44:54;99309.56;;;21.48;29.35
64616;BME280;51027;42.162;24.754;2024-03-23T13:47:19;99301.81;;;21.74;29.05
64616;BME280;51027;42.162;24.754;2024-03-23T13:49:45;99302.63;;;21.36;28.57
64616;BME280;51027;42.162;24.754;2024-03-23T13:52:11;99306.59;;;21.61;28.45
64616;BME280;51027;42.162;24.754;2024-03-23T13:54:37;99291.38;;;21.91;28.68
64616;BME280;51027;42.162;24.754;2024-03-23T13:57:02;99303.09;;;21.80;28.67
64616;BME280;51027;42.162;24.754;2024-03-23T13:59:28;99297.81;;;21.40;28.85
64616;BME280;51027;42.162;24.754;2024-03-23T14:01:54;99301.56;;;21.18;29.49
64616;BME280;51027;42.162;24.754;2024-03-23T14:04:20;99295.34;;;21.17;30.09
64616;BME280;51027;42.162;24.754;2024-03-23T14:06:46;99264.56;;;21.71;29.90
64616;BME280;51027;42.162;24.754;2024-03-23T14:09:12;99289.16;;;21.17;30.09
64616;BME280;51027;42.162;24.754;2024-03-23T14:11:38;99281.63;;;21.80;29.54
64616;BME280;51027;42.162;24.754;2024-03-23T14:14:03;99291.91;;;21.36;29.32
64616;BME280;51027;42.162;24.754;2024-03-23T14:16:30;99278.28;;;21.18;29.50
64616;BME280;51027;42.162;24.754;2024-03-23T14:18:56;99265.44;;;21.12;28.47
64616;BME280;51027;42.162;24.754;2024-03-23T14:21:21;99274.25;;;20.93;28.13
64616;BME280;51027;42.162;24.754;2024-03-23T14:23:47;99258.16;;;20.74;27.90
64616;BME280;51027;42.162;24.754;2024-03-23T14:26:12;99279.88;;;20.81;29.12
64616;BME280;51027;42.162;24.754;2024-03-23T14:28:37;99273.03;;;20.97;29.52
64616;BME280;51027;42.162;24.754;2024-03-23T14:31:03;99265.97;;;20.35;29.37
64616;BME280;51027;42.162;24.754;2024-03-23T14:33:36;99262.13;;;20.28;30.37
64616;BME280;51027;42.162;24.754;2024-03-23T14:36:03;99258.78;;;20.87;30.38
64616;BME280;51027;42.162;24.754;2024-03-23T14:38:29;99259.34;;;20.09;30.97
64616;BME280;51027;42.162;24.754;2024-03-23T14:40:58;99242.25;;;19.47;31.61
64616;BME280;51027;42.162;24.754;2024-03-23T14:43:24;99257.44;;;19.79;32.00
64616;BME280;51027;42.162;24.754;2024-03-23T14:48:34;99251.84;;;20.03;30.72
64616;BME280;51027;42.162;24.754;2024-03-23T14:51:00;99252.31;;;20.38;30.60
64616;BME280;51027;42.162;24.754;2024-03-23T14:53:26;99253.66;;;19.81;30.01
64616;BME280;51027;42.162;24.754;2024-03-23T14:55:56;99249.28;;;19.80;29.96
64616;BME280;51027;42.162;24.754;2024-03-23T14:58:22;99242.09;;;19.60;29.00
64616;BME280;51027;42.162;24.754;2024-03-23T15:00:48;99224.44;;;19.37;29.43
64616;BME280;51027;42.162;24.754;2024-03-23T15:03:14;99236.69;;;18.96;29.99
64616;BME280;51027;42.162;24.754;2024-03-23T15:05:39;99222.09;;;19.00;30.03
64616;BME280;51027;42.162;24.754;2024-03-23T15:08:05;99222.81;;;19.13;30.11
64616;BME280;51027;42.162;24.754;2024-03-23T15:10:33;99244.72;;;18.85;30.43
64616;BME280;51027;42.162;24.754;2024-03-23T15:12:58;99229.28;;;18.88;30.92
64616;BME280;51027;42.162;24.754;2024-03-23T15:15:23;99219.25;;;18.47;31.79
64616;BME280;51027;42.162;24.754;2024-03-23T15:17:49;99228.09;;;18.48;31.96
64616;BME280;51027;42.162;24.754;2024-03-23T15:20:15;99224.69;;;18.34;32.53
64616;BME280;51027;42.162;24.754;2024-03-23T15:22:41;99209.78;;;18.43;32.64
64616;BME280;51027;42.162;24.754;2024-03-23T15:25:07;99222.75;;;18.14;33.67
64616;BME280;51027;42.162;24.754;2024-03-23T15:27:33;99216.00;;;17.75;33.89
64616;BME280;51027;42.162;24.754;2024-03-23T15:29:59;99227.56;;;17.63;33.65
64616;BME280;51027;42.162;24.754;2024-03-23T15:32:24;99218.09;;;17.47;33.63
64616;BME280;51027;42.162;24.754;2024-03-23T15:34:50;99221.06;;;17.43;33.75
64616;BME280;51027;42.162;24.754;2024-03-23T15:37:15;99231.66;;;17.32;33.63
64616;BME280;51027;42.162;24.754;2024-03-23T15:39:41;99223.72;;;17.43;33.72
64616;BME280;51027;42.162;24.754;2024-03-23T15:42:07;99184.97;;;17.04;34.03
64616;BME280;51027;42.162;24.754;2024-03-23T15:44:32;99210.47;;;17.06;33.93
64616;BME280;51027;42.162;24.754;2024-03-23T15:46:57;99207.94;;;17.05;33.95
64616;BME280;51027;42.162;24.754;2024-03-23T15:49:23;99218.09;;;16.99;34.29
64616;BME280;51027;42.162;24.754;2024-03-23T15:51:48;99206.13;;;16.81;33.65
64616;BME280;51027;42.162;24.754;2024-03-23T15:54:14;99186.88;;;16.65;34.42
64616;BME280;51027;42.162;24.754;2024-03-23T15:56:39;99209.00;;;16.78;37.33
64616;BME280;51027;42.162;24.754;2024-03-23T15:59:04;99207.44;;;16.76;37.24
64616;BME280;51027;42.162;24.754;2024-03-23T16:01:32;99209.44;;;16.72;43.33
64616;BME280;51027;42.162;24.754;2024-03-23T16:04:03;99210.63;;;16.55;35.09
64616;BME280;51027;42.162;24.754;2024-03-23T16:06:29;99202.25;;;16.49;35.51
64616;BME280;51027;42.162;24.754;2024-03-23T16:08:54;99202.66;;;16.42;35.62
64616;BME280;51027;42.162;24.754;2024-03-23T16:11:20;99210.31;;;16.34;37.00
64616;BME280;51027;42.162;24.754;2024-03-23T16:13:45;99188.13;;;16.23;36.45
64616;BME280;51027;42.162;24.754;2024-03-23T16:16:11;99201.28;;;16.24;36.63
64616;BME280;51027;42.162;24.754;2024-03-23T16:18:38;99206.13;;;16.06;37.13
64616;BME280;51027;42.162;24.754;2024-03-23T16:21:05;99187.59;;;15.92;37.52
64616;BME280;51027;42.162;24.754;2024-03-23T16:23:35;99203.75;;;15.89;38.21
64616;BME280;51027;42.162;24.754;2024-03-23T16:26:05;99198.88;;;15.83;38.30
64616;BME280;51027;42.162;24.754;2024-03-23T16:28:32;99206.09;;;15.68;39.53
64616;BME280;51027;42.162;24.754;2024-03-23T16:31:05;99204.75;;;15.48;40.53
64616;BME280;51027;42.162;24.754;2024-03-23T16:33:34;99202.28;;;15.33;41.25
64616;BME280;51027;42.162;24.754;2024-03-23T16:38:27;99194.69;;;15.14;42.41
64616;BME280;51027;42.162;24.754;2024-03-23T16:41:01;99182.16;;;14.89;42.86
64616;BME280;51027;42.162;24.754;2024-03-23T16:43:27;99190.69;;;14.80;43.07
64616;BME280;51027;42.162;24.754;2024-03-23T16:46:00;99202.94;;;14.82;43.59
64616;BME280;51027;42.162;24.754;2024-03-23T16:48:26;99169.75;;;14.62;43.79
64616;BME280;51027;42.162;24.754;2024-03-23T16:50:53;99195.31;;;14.63;44.35
64616;BME280;51027;42.162;24.754;2024-03-23T16:53:19;99137.91;;;14.21;44.26
64616;BME280;51027;42.162;24.754;2024-03-23T16:55:45;99186.88;;;14.57;44.87
64616;BME280;51027;42.162;24.754;2024-03-23T16:58:10;99186.31;;;14.37;45.07
64616;BME280;51027;42.162;24.754;2024-03-23T17:00:36;99204.84;;;14.37;45.70
64616;BME280;51027;42.162;24.754;2024-03-23T17:03:05;99131.19;;;13.87;46.12
64616;BME280;51027;42.162;24.754;2024-03-23T17:05:37;99177.81;;;14.04;46.48
64616;BME280;51027;42.162;24.754;2024-03-23T17:08:03;99185.97;;;14.01;46.71
64616;BME280;51027;42.162;24.754;2024-03-23T17:10:29;99190.56;;;13.97;46.57
64616;BME280;51027;42.162;24.754;2024-03-23T17:12:54;99170.91;;;13.73;47.73
64616;BME280;51027;42.162;24.754;2024-03-23T17:15:20;99187.34;;;13.78;47.27
64616;BME280;51027;42.162;24.754;2024-03-23T17:17:47;99196.00;;;13.66;47.60
64616;BME280;51027;42.162;24.754;2024-03-23T17:20:13;99198.44;;;13.54;48.43
64616;BME280;51027;42.162;24.754;2024-03-23T17:22:39;99145.66;;;13.07;49.96
64616;BME280;51027;42.162;24.754;2024-03-23T17:25:05;99173.63;;;13.11;50.34
64616;BME280;51027;42.162;24.754;2024-03-23T17:27:31;99190.88;;;13.18;50.36
64616;BME280;51027;42.162;24.754;2024-03-23T17:29:56;99198.78;;;13.18;50.30
64616;BME280;51027;42.162;24.754;2024-03-23T17:32:21;99188.50;;;12.98;50.67